Latest Weather Observations for Taree Airport

IDN60801

Issued at 10:03 am EST Sunday 25 September 2016 (issued every 30 minutes, with the page automatically refreshed every 10 minutes)

About weather observations | Map of weather stations | Latest weather observations for NSW | Other Formats
Station Details ID: 060141 Name: TAREE AIRPORT AWS Lat: -31.89 Lon: 152.51 Height: 8.0 m
Data from the previous 72 hours. | See also: Recent months at Taree Airport
Date/Time
EST
Temp
°C
App
Temp
°C
Dew
Point
°C
Rel
Hum
%
Delta-T
°C
Wind Press
QNH
hPa
Press
MSL
hPa
Rain since
9am
mm
Dir  Spd
km/h
Gust
km/h
Spd
kts
Gust
kts
25/10:00am 18.4 17.9 14.9 80 2.0 WSW 11 17 6 9 1006.7 1006.7 0.4
25/09:30am 16.1 14.8 13.8 86 1.3 WSW 13 17 7 9 1007.3 1007.3 0.4
25/09:00am 16.2 14.4 13.3 83 1.6 W 15 20 8 11 1007.6 1007.6 0.4
25/08:30am 16.6 16.0 13.5 82 1.7 WNW 9 13 5 7 1007.1 1007.1 0.4
25/08:00am 16.1 15.3 14.1 88 1.1 SW 11 15 6 8 1006.8 1006.8 0.4
25/07:30am 15.1 14.1 13.5 90 0.9 WSW 11 13 6 7 1007.0 1007.0 0.0
25/07:00am 14.9 14.4 13.8 93 0.6 SW 9 13 5 7 1006.6 1006.6 0.0
25/06:30am 14.7 13.3 13.4 92 0.7 WSW 13 19 7 10 1006.4 1006.4 0.0
25/06:00am 14.7 14.9 13.1 90 0.9 SW 4 9 2 5 1006.3 1006.3 0.0
25/05:30am 14.6 14.3 12.8 89 1.0 NW 6 9 3 5 1006.1 1006.1 0.0
25/05:00am 14.8 14.4 13.0 89 1.0 WNW 7 9 4 5 1006.2 1006.2 0.0
25/04:30am 14.8 14.7 13.2 90 0.9 WNW 6 9 3 5 1006.3 1006.3 0.0
25/04:00am 14.6 14.2 13.0 90 0.9 WNW 7 9 4 5 1006.2 1006.2 0.0
25/03:30am 14.6 13.9 13.3 92 0.7 W 9 11 5 6 1006.4 1006.4 0.0
25/03:00am 14.6 13.9 13.1 91 0.8 NW 9 11 5 6 1006.3 1006.3 0.0
25/02:30am 14.8 15.8 13.2 90 0.9 CALM 0 0 0 0 1006.4 1006.4 0.0
25/02:00am 14.9 15.9 13.1 89 1.0 CALM 0 0 0 0 1007.0 1007.0 0.0
25/01:30am 15.1 16.1 13.1 88 1.1 CALM 0 4 0 2 1007.6 1007.6 0.0
25/01:00am 14.9 14.5 13.1 89 1.0 WSW 7 9 4 5 1007.7 1007.7 0.0
25/12:30am 14.8 14.7 13.3 91 0.8 SW 6 9 3 5 1007.9 1007.9 0.0
25/12:00am 14.5 15.5 13.2 92 0.7 CALM 0 0 0 0 1008.1 1008.1 0.0
 
Date/Time
EST
Temp
°C
App
Temp
°C
Dew
Point
°C
Rel
Hum
%
Delta-T
°C
Wind Press
QNH
hPa
Press
MSL
hPa
Rain since
9am
mm
Dir  Spd
km/h
Gust
km/h
Spd
kts
Gust
kts
24/11:30pm 14.4 14.6 13.1 92 0.7 S 4 7 2 4 1008.3 1008.3 0.0
24/11:00pm 14.2 15.2 13.1 93 0.6 CALM 0 0 0 0 1008.6 1008.6 0.0
24/10:30pm 13.9 15.0 13.4 97 0.3 CALM 0 0 0 0 1008.8 1008.8 0.0
24/10:00pm 13.9 14.7 12.5 91 0.8 CALM 0 0 0 0 1009.1 1009.1 0.0
24/09:30pm 15.5 16.6 13.5 88 1.1 CALM 0 0 0 0 1009.6 1009.6 0.0
24/09:00pm 16.1 16.0 13.2 83 1.6 NNW 6 7 3 4 1009.8 1009.8 0.0
24/08:30pm 15.8 16.5 13.3 85 1.4 N 2 7 1 4 1009.7 1009.7 0.0
24/08:00pm 16.8 17.9 13.5 81 1.9 CALM 0 0 0 0 1009.6 1009.6 0.0
24/07:30pm 16.4 17.3 12.9 80 1.9 CALM 0 0 0 0 1009.5 1009.5 0.0
24/07:00pm 16.7 17.6 12.8 78 2.2 CALM 0 0 0 0 1009.5 1009.5 0.0
24/06:30pm 16.6 17.3 12.2 75 2.4 CALM 0 0 0 0 1009.2 1009.2 0.0
24/06:00pm 17.5 17.0 12.2 71 2.9 NE 6 7 3 4 1008.8 1008.8 0.0
24/05:30pm 18.8 17.8 12.3 66 3.6 ENE 9 11 5 6 1008.5 1008.5 0.0
24/05:00pm 19.6 18.2 12.1 62 4.2 E 11 15 6 8 1008.5 1008.5 0.0
24/04:30pm 20.1 18.4 12.6 62 4.2 ESE 13 19 7 10 1008.2 1008.2 0.0
24/04:00pm 20.3 17.4 12.3 60 4.5 SE 19 26 10 14 1008.1 1008.1 0.0
24/03:30pm 20.6 17.9 13.6 64 4.0 ESE 20 28 11 15 1007.7 1007.7 0.0
24/03:00pm 21.1 18.7 13.8 63 4.2 ESE 19 26 10 14 1007.7 1007.7 0.0
24/02:30pm 21.2 18.6 13.9 63 4.2 ESE 20 28 11 15 1007.9 1007.9 0.0
24/02:00pm 21.8 18.8 13.7 60 4.7 ESE 22 28 12 15 1008.2 1008.2 0.0
24/01:30pm 22.2 19.7 13.5 57 5.0 SE 19 26 10 14 1008.8 1008.8 0.0
24/01:00pm 22.1 19.7 13.7 59 4.9 ESE 19 24 10 13 1009.3 1009.3 0.0
24/12:30pm 21.2 18.7 12.3 57 5.0 SE 17 24 9 13 1009.5 1009.5 0.0
24/12:00pm 23.1 21.1 10.2 44 7.1 WSW 11 15 6 8 1009.8 1009.8 0.0
24/11:30am 22.4 20.8 11.5 50 6.1 W 11 17 6 9 1010.4 1010.4 0.0
24/11:00am 21.7 19.7 11.4 52 5.7 SW 13 20 7 11 1010.8 1010.8 0.0
24/10:30am 21.3 19.0 11.6 54 5.4 WSW 15 20 8 11 1011.1 1011.1 0.0
24/10:00am 20.9 18.1 11.5 55 5.2 WSW 17 28 9 15 1011.5 1011.5 0.0
24/09:30am 20.1 17.8 11.6 58 4.7 WSW 15 20 8 11 1011.7 1011.7 0.0
24/09:00am 19.2 16.1 11.7 62 4.1 W 19 26 10 14 1012.1 1012.1 0.0
24/08:30am 18.1 15.6 11.0 63 3.8 W 15 19 8 10 1012.3 1012.3 0.0
24/08:00am 17.1 13.9 11.2 68 3.2 W 19 28 10 15 1012.3 1012.3 0.0
24/07:30am 15.7 13.4 10.5 71 2.7 WSW 13 19 7 10 1012.3 1012.3 0.0
24/07:00am 15.0 12.7 10.6 75 2.3 W 13 19 7 10 1012.2 1012.2 0.0
24/06:30am 13.4 11.0 10.2 81 1.7 WNW 13 17 7 9 1012.0 1012.0 0.0
24/06:00am 12.6 10.2 10.0 84 1.3 W 13 17 7 9 1011.9 1011.9 0.0
24/05:30am 12.4 11.2 9.6 83 1.4 W 6 11 3 6 1011.6 1011.6 0.0
24/05:00am 12.7 10.3 9.9 83 1.4 W 13 17 7 9 1011.2 1011.2 0.0
24/04:30am 12.6 10.6 10.1 85 1.3 W 11 15 6 8 1011.1 1011.1 0.0
24/04:00am 12.7 11.4 9.9 83 1.4 WNW 7 9 4 5 1010.7 1010.7 0.0
24/03:30am 12.8 11.5 9.8 82 1.5 SW 7 9 4 5 1010.6 1010.6 0.0
24/03:00am 13.0 11.3 10.0 82 1.5 WSW 9 11 5 6 1010.7 1010.7 0.0
24/02:30am 13.9 11.6 10.3 79 1.9 WNW 13 17 7 9 1010.8 1010.8 0.0
24/02:00am 12.9 11.6 10.1 83 1.4 WNW 7 11 4 6 1010.9 1010.9 0.0
24/01:30am 13.4 12.3 10.0 80 1.8 W 6 7 3 4 1010.9 1010.9 0.0
24/01:00am 14.0 12.4 10.2 78 2.0 W 9 11 5 6 1011.0 1011.0 0.0
24/12:30am 14.1 12.5 10.1 77 2.1 W 9 15 5 8 1011.1 1011.1 0.0
24/12:00am 14.2 12.5 9.8 75 2.3 WNW 9 13 5 7 1011.4 1011.4 0.0
 
Date/Time
EST
Temp
°C
App
Temp
°C
Dew
Point
°C
Rel
Hum
%
Delta-T
°C
Wind Press
QNH
hPa
Press
MSL
hPa
Rain since
9am
mm
Dir  Spd
km/h
Gust
km/h
Spd
kts
Gust
kts
23/11:30pm 14.5 12.2 10.3 76 2.2 W 13 15 7 8 1011.4 1011.4 0.0
23/11:00pm 14.6 13.1 10.4 76 2.2 WNW 9 13 5 7 1011.4 1011.4 0.0
23/10:30pm 15.0 13.2 10.8 76 2.2 W 11 13 6 7 1011.4 1011.4 0.0
23/10:00pm 15.2 13.3 10.4 73 2.5 NW 11 11 6 6 1011.6 1011.6 0.0
23/09:30pm 16.0 14.5 10.7 71 2.8 WSW 9 13 5 7 1011.6 1011.6 0.0
23/09:00pm 16.3 13.8 11.0 71 2.8 WSW 15 19 8 10 1011.7 1011.7 0.0
23/08:30pm 16.3 13.5 11.2 72 2.7 SW 17 20 9 11 1011.8 1011.8 0.0
23/08:00pm 16.6 14.1 11.1 70 3.0 WSW 15 24 8 13 1011.8 1011.8 0.0
23/07:30pm 16.6 14.9 11.1 70 3.0 WSW 11 15 6 8 1011.6 1011.6 0.0
23/07:00pm 16.8 15.0 10.9 68 3.2 WSW 11 15 6 8 1011.2 1011.2 0.0
23/06:30pm 16.7 14.9 10.8 68 3.2 SSW 11 15 6 8 1010.8 1010.8 0.0
23/06:00pm 17.1 14.8 10.5 65 3.5 SSW 13 17 7 9 1010.2 1010.2 0.0
23/05:30pm 18.1 16.2 10.5 61 4.1 SSW 11 15 6 8 1009.8 1009.8 0.0
23/05:00pm 19.5 16.5 10.5 56 4.9 WSW 17 24 9 13 1009.7 1009.7 0.0
23/04:30pm 19.3 14.6 10.6 57 4.7 SW 26 35 14 19 1009.7 1009.7 0.0
23/04:00pm 20.5 16.0 11.4 56 5.0 SW 26 35 14 19 1009.5 1009.5 0.0
23/03:30pm 19.8 15.8 10.5 55 5.0 SW 22 37 12 20 1009.3 1009.3 0.0
23/03:00pm 20.1 14.9 10.2 53 5.3 SW 28 35 15 19 1009.0 1009.0 0.0
23/02:30pm 21.0 15.4 10.2 50 5.8 SW 30 43 16 23 1008.9 1008.9 0.0
23/02:00pm 21.5 16.4 10.6 50 6.0 SW 28 37 15 20 1008.7 1008.7 0.0
23/01:30pm 21.6 16.1 10.4 49 6.1 SW 30 39 16 21 1008.9 1008.9 0.0
23/01:06pm 20.8 15.4 9.4 48 6.1 SW 28 50 15 27 1009.0 1009.0 0.0
23/01:00pm 21.8 16.9 11.2 51 5.9 SW 28 44 15 24 1009.1 1009.1 0.0
23/12:30pm 20.6 15.4 10.1 51 5.7 SW 28 37 15 20 1009.1 1009.1 0.0
23/12:00pm 20.1 14.8 9.9 52 5.5 SW 28 39 15 21 1009.4 1009.4 0.0
23/11:30am 20.1 15.1 9.7 51 5.6 SW 26 39 14 21 1009.7 1009.7 0.0
23/11:00am 20.1 15.5 9.7 51 5.6 SW 24 32 13 17 1009.8 1009.8 0.0
23/10:30am 20.3 15.5 10.4 53 5.4 WSW 26 37 14 20 1009.8 1009.8 0.0
23/10:00am 19.2 14.3 9.9 55 5.0 WSW 26 39 14 21 1009.9 1009.9 0.0
23/09:30am 18.2 13.0 8.7 54 4.9 WSW 26 41 14 22 1010.1 1010.1 0.0
23/09:20am 18.0 12.5 9.1 56 4.6 WSW 28 52 15 28 1010.1 1010.1 0.0
23/09:00am 18.0 12.4 8.8 55 4.8 WSW 28 41 15 22 1010.1 1010.1 0.0
23/08:30am 17.7 12.0 8.3 54 4.8 WSW 28 52 15 28 1009.7 1009.7 0.0
23/08:28am 17.8 12.1 8.4 54 4.8 WSW 28 52 15 28 1009.8 1009.8 0.0
23/08:00am 18.1 12.5 8.7 54 4.9 WSW 28 44 15 24 1009.5 1009.5 0.0
23/07:30am 17.6 12.3 8.5 55 4.7 WSW 26 39 14 21 1009.5 1009.5 0.0
23/07:00am 17.4 12.0 8.0 54 4.8 WSW 26 39 14 21 1009.6 1009.6 0.0
23/06:30am 17.0 12.3 7.9 55 4.6 WSW 22 33 12 18 1009.1 1009.1 0.0
23/06:00am 17.0 12.3 7.9 55 4.6 WSW 22 33 12 18 1008.7 1008.7 0.0
23/05:30am 16.9 12.2 7.8 55 4.6 WSW 22 39 12 21 1008.2 1008.2 0.0
23/05:00am 16.8 12.2 8.0 56 4.5 WSW 22 33 12 18 1008.0 1008.0 0.0
23/04:30am 16.4 11.7 7.6 56 4.4 W 22 35 12 19 1007.7 1007.7 0.0
23/04:00am 16.5 12.4 7.7 56 4.4 W 19 28 10 15 1007.7 1007.7 0.0
23/03:30am 16.2 12.4 7.7 57 4.3 W 17 22 9 12 1007.8 1007.8 0.0
23/03:00am 15.9 11.6 7.7 58 4.1 W 20 30 11 16 1007.9 1007.9 0.0
23/02:30am 15.8 12.0 7.6 58 4.1 W 17 24 9 13 1007.8 1007.8 0.0
23/02:00am 15.8 11.6 7.3 57 4.2 W 19 26 10 14 1007.8 1007.8 0.0
23/01:30am 15.8 11.5 7.1 56 4.3 W 19 28 10 15 1008.0 1008.0 0.0
23/01:00am 15.9 11.6 6.9 55 4.4 W 19 26 10 14 1008.1 1008.1 0.0
23/12:30am 16.2 12.2 6.6 53 4.7 W 17 24 9 13 1008.3 1008.3 0.0
23/12:00am 16.6 12.2 6.4 51 5.0 W 19 26 10 14 1008.4 1008.4 0.0
 
Date/Time
EST
Temp
°C
App
Temp
°C
Dew
Point
°C
Rel
Hum
%
Delta-T
°C
Wind Press
QNH
hPa
Press
MSL
hPa
Rain since
9am
mm
Dir  Spd
km/h
Gust
km/h
Spd
kts
Gust
kts
22/11:30pm 16.3 12.2 6.2 51 4.9 W 17 22 9 12 1008.7 1008.7 0.0
22/11:00pm 16.7 12.5 5.9 49 5.2 W 17 24 9 13 1008.8 1008.8 0.0
22/10:30pm 16.9 12.7 5.8 48 5.4 W 17 26 9 14 1008.7 1008.7 0.0
22/10:00pm 16.9 11.8 5.8 48 5.4 W 22 32 12 17 1008.8 1008.8 0.0
22/09:30pm 17.3 12.6 5.9 47 5.6 W 20 32 11 17 1008.7 1008.7 0.0
22/09:00pm 17.5 12.8 6.1 47 5.6 W 20 28 11 15 1008.6 1008.6 0.0
22/08:30pm 17.4 12.7 6.0 47 5.6 W 20 32 11 17 1008.6 1008.6 0.0
22/08:00pm 17.6 12.9 6.2 47 5.6 W 20 32 11 17 1008.6 1008.6 0.0
22/07:30pm 17.9 13.1 5.8 45 5.9 W 20 33 11 18 1008.5 1008.5 0.0
22/07:00pm 18.3 14.9 5.8 44 6.1 W 13 19 7 10 1008.6 1008.6 0.0
22/06:30pm 18.5 14.8 6.4 45 6.0 W 15 26 8 14 1008.3 1008.3 0.0
22/06:00pm 18.3 15.0 6.2 45 6.0 W 13 17 7 9 1008.0 1008.0 0.0
22/05:30pm 18.8 14.2 6.3 44 6.2 WSW 20 33 11 18 1007.5 1007.5 0.0
22/05:00pm 19.1 14.6 6.2 43 6.4 W 19 28 10 15 1007.1 1007.1 0.0
22/04:30pm 20.1 14.5 5.4 38 7.2 WSW 24 39 13 21 1006.7 1006.7 0.0
22/04:00pm 20.1 14.0 5.0 37 7.4 WSW 26 37 14 20 1006.4 1006.4 0.0
22/03:30pm 20.0 14.4 5.3 38 7.2 W 24 39 13 21 1006.3 1006.3 0.0
22/03:00pm 20.2 13.2 5.8 39 7.2 W 32 44 17 24 1006.1 1006.1 0.0
22/02:54pm 21.0 14.9 6.5 39 7.3 W 28 48 15 26 1006.2 1006.2 0.0
22/02:30pm 20.3 13.9 7.0 42 6.8 W 30 39 16 21 1006.1 1006.1 0.0
22/02:00pm 21.4 15.5 7.3 40 7.3 W 28 41 15 22 1006.2 1006.2 0.0
22/01:42pm 20.6 14.6 6.9 41 7.0 W 28 46 15 25 1006.4 1006.4 0.0
22/01:30pm 21.4 15.6 8.0 42 7.0 WNW 28 41 15 22 1006.4 1006.4 0.0
22/01:00pm 20.9 14.6 7.2 41 7.0 W 30 43 16 23 1006.5 1006.5 0.0
22/12:30pm 20.9 15.0 7.5 42 6.9 W 28 44 15 24 1006.6 1006.6 0.0
22/12:00pm 20.8 14.9 7.4 42 6.9 W 28 41 15 22 1006.8 1006.8 0.0
22/11:30am 20.6 14.9 8.3 45 6.4 WNW 28 35 15 19 1007.0 1007.0 0.0
22/11:00am 20.0 14.1 7.7 45 6.3 WNW 28 37 15 20 1007.3 1007.3 0.0
22/10:30am 20.4 15.5 8.4 46 6.3 WNW 24 35 13 19 1007.5 1007.5 0.0

Other Formats:

Comma delimited format used in spreadsheet applications
http://www.bom.gov.au/fwo/IDN60801/IDN60801.95784.axf

JavaScript Object Notation format (JSON) in row-major order
http://www.bom.gov.au/fwo/IDN60801/IDN60801.95784.json